Terminal Aerodrome Forecast
Issued by NWS

Home | Current Version | Previous Version | Text Only | Print | Product List | Glossary On
Versions: 1 2 3 4 5 6 7 8 9 10 11 12
000
FTUS45 KRIW 311727
TAFCPR
TAF
KCPR 311727Z 3118/0118 VRB06KT P6SM FEW200
     FM312000 07008KT P6SM FEW110
     FM010300 09007KT P6SM SCT200
     FM010900 VRB06KT P6SM FEW200=

USA.gov is the U.S. government's official web portal to all federal, state and local government web resources and services.